Terminal Aerodrome Forecast
Issued by NWS

Home | Current Version | Previous Version | Text Only | Print | Product List | Glossary On
Versions: 1 2 3 4 5 6 7 8 9 10 11 12 13 14 15 16 17 18 19 20 21 22
000
FTUS45 KSLC 302345
TAFENV
TAF
KENV 302345Z 0100/0124 02015G24KT P6SM SCT050 BKN080
     FM010300 35012G21KT P6SM BKN080
     FM010600 01011KT P6SM SCT050 BKN060
     FM011300 36018G28KT P6SM SCT050 BKN080
     FM012000 04014KT P6SM SCT050 BKN100
      AMD LTD TO CLD VIS AND WIND=

USA.gov is the U.S. government's official web portal to all federal, state and local government web resources and services.